sensor_id;sensor_type;location;lat;lon;timestamp;P1;durP1;ratioP1;P2;durP2;ratioP2
63714;SDS011;49858;48.956;9.076;2023-11-19T00:01:05;17.77;;;6.90;;
63714;SDS011;49858;48.956;9.076;2023-11-19T00:03:34;8.52;;;5.38;;
63714;SDS011;49858;48.956;9.076;2023-11-19T00:06:02;12.60;;;5.78;;
63714;SDS011;49858;48.956;9.076;2023-11-19T00:08:30;12.68;;;5.00;;
63714;SDS011;49858;48.956;9.076;2023-11-19T00:10:57;11.52;;;5.30;;
63714;SDS011;49858;48.956;9.076;2023-11-19T00:13:28;6.65;;;4.28;;
63714;SDS011;49858;48.956;9.076;2023-11-19T00:15:55;11.18;;;4.70;;
63714;SDS011;49858;48.956;9.076;2023-11-19T00:18:24;13.52;;;4.68;;
63714;SDS011;49858;48.956;9.076;2023-11-19T00:20:52;7.63;;;4.47;;
63714;SDS011;49858;48.956;9.076;2023-11-19T00:23:20;10.55;;;5.50;;
63714;SDS011;49858;48.956;9.076;2023-11-19T00:25:48;9.18;;;5.32;;
63714;SDS011;49858;48.956;9.076;2023-11-19T00:28:16;16.40;;;7.05;;
63714;SDS011;49858;48.956;9.076;2023-11-19T00:30:45;15.80;;;7.45;;
63714;SDS011;49858;48.956;9.076;2023-11-19T00:33:13;30.50;;;10.07;;
63714;SDS011;49858;48.956;9.076;2023-11-19T00:35:41;25.73;;;11.02;;
63714;SDS011;49858;48.956;9.076;2023-11-19T00:38:10;21.77;;;9.90;;
63714;SDS011;49858;48.956;9.076;2023-11-19T00:40:37;19.63;;;8.85;;
63714;SDS011;49858;48.956;9.076;2023-11-19T00:43:07;19.60;;;10.20;;
63714;SDS011;49858;48.956;9.076;2023-11-19T00:45:35;13.25;;;7.90;;
63714;SDS011;49858;48.956;9.076;2023-11-19T00:48:04;38.05;;;10.32;;
63714;SDS011;49858;48.956;9.076;2023-11-19T00:50:33;12.90;;;7.22;;
63714;SDS011;49858;48.956;9.076;2023-11-19T00:53:04;12.85;;;7.68;;
63714;SDS011;49858;48.956;9.076;2023-11-19T00:55:32;17.05;;;7.10;;
63714;SDS011;49858;48.956;9.076;2023-11-19T00:58:00;19.70;;;7.40;;
63714;SDS011;49858;48.956;9.076;2023-11-19T01:00:29;14.93;;;7.63;;
63714;SDS011;49858;48.956;9.076;2023-11-19T01:02:58;17.55;;;8.25;;
63714;SDS011;49858;48.956;9.076;2023-11-19T01:05:28;14.43;;;8.43;;
63714;SDS011;49858;48.956;9.076;2023-11-19T01:07:56;20.27;;;8.77;;
63714;SDS011;49858;48.956;9.076;2023-11-19T01:10:23;14.15;;;7.75;;
63714;SDS011;49858;48.956;9.076;2023-11-19T01:12:52;36.60;;;9.05;;
63714;SDS011;49858;48.956;9.076;2023-11-19T01:15:20;18.35;;;9.15;;
63714;SDS011;49858;48.956;9.076;2023-11-19T01:17:49;15.63;;;8.57;;
63714;SDS011;49858;48.956;9.076;2023-11-19T01:20:19;18.75;;;9.70;;
63714;SDS011;49858;48.956;9.076;2023-11-19T01:22:49;19.10;;;8.90;;
63714;SDS011;49858;48.956;9.076;2023-11-19T01:25:17;17.00;;;8.35;;
63714;SDS011;49858;48.956;9.076;2023-11-19T01:27:46;19.33;;;9.10;;
63714;SDS011;49858;48.956;9.076;2023-11-19T01:30:13;17.23;;;8.52;;
63714;SDS011;49858;48.956;9.076;2023-11-19T01:32:42;15.40;;;8.65;;
63714;SDS011;49858;48.956;9.076;2023-11-19T01:35:09;14.32;;;8.10;;
63714;SDS011;49858;48.956;9.076;2023-11-19T01:37:37;14.52;;;8.13;;
63714;SDS011;49858;48.956;9.076;2023-11-19T01:40:07;14.10;;;7.40;;
63714;SDS011;49858;48.956;9.076;2023-11-19T01:42:38;14.45;;;8.15;;
63714;SDS011;49858;48.956;9.076;2023-11-19T01:45:06;16.05;;;8.15;;
63714;SDS011;49858;48.956;9.076;2023-11-19T01:47:36;15.65;;;8.43;;
63714;SDS011;49858;48.956;9.076;2023-11-19T01:50:05;23.27;;;9.00;;
63714;SDS011;49858;48.956;9.076;2023-11-19T01:52:35;19.98;;;9.85;;
63714;SDS011;49858;48.956;9.076;2023-11-19T01:55:04;18.58;;;10.10;;
63714;SDS011;49858;48.956;9.076;2023-11-19T01:57:35;19.90;;;8.82;;
63714;SDS011;49858;48.956;9.076;2023-11-19T02:00:06;16.17;;;8.30;;
63714;SDS011;49858;48.956;9.076;2023-11-19T02:02:42;14.20;;;8.55;;
63714;SDS011;49858;48.956;9.076;2023-11-19T02:05:12;17.20;;;9.32;;
63714;SDS011;49858;48.956;9.076;2023-11-19T02:07:40;16.67;;;8.68;;
63714;SDS011;49858;48.956;9.076;2023-11-19T02:10:08;20.23;;;9.18;;
63714;SDS011;49858;48.956;9.076;2023-11-19T02:12:42;22.42;;;10.05;;
63714;SDS011;49858;48.956;9.076;2023-11-19T02:15:11;17.60;;;9.00;;
63714;SDS011;49858;48.956;9.076;2023-11-19T02:17:39;20.27;;;9.82;;
63714;SDS011;49858;48.956;9.076;2023-11-19T02:20:07;19.85;;;8.80;;
63714;SDS011;49858;48.956;9.076;2023-11-19T02:22:38;21.58;;;8.98;;
63714;SDS011;49858;48.956;9.076;2023-11-19T02:25:07;16.10;;;8.23;;
63714;SDS011;49858;48.956;9.076;2023-11-19T02:30:26;19.33;;;8.05;;
63714;SDS011;49858;48.956;9.076;2023-11-19T02:32:54;18.70;;;8.93;;
63714;SDS011;49858;48.956;9.076;2023-11-19T02:35:24;20.05;;;9.85;;
63714;SDS011;49858;48.956;9.076;2023-11-19T02:37:52;14.73;;;7.90;;
63714;SDS011;49858;48.956;9.076;2023-11-19T02:40:20;18.88;;;8.35;;
63714;SDS011;49858;48.956;9.076;2023-11-19T02:42:50;15.48;;;8.50;;
63714;SDS011;49858;48.956;9.076;2023-11-19T02:45:20;17.58;;;7.70;;
63714;SDS011;49858;48.956;9.076;2023-11-19T02:47:48;16.00;;;7.55;;
63714;SDS011;49858;48.956;9.076;2023-11-19T02:50:17;17.48;;;8.38;;
63714;SDS011;49858;48.956;9.076;2023-11-19T02:52:51;14.20;;;7.38;;
63714;SDS011;49858;48.956;9.076;2023-11-19T02:55:20;14.95;;;7.60;;
63714;SDS011;49858;48.956;9.076;2023-11-19T02:57:50;13.07;;;6.85;;
63714;SDS011;49858;48.956;9.076;2023-11-19T03:00:21;26.25;;;7.43;;
63714;SDS011;49858;48.956;9.076;2023-11-19T03:02:51;13.23;;;6.93;;
63714;SDS011;49858;48.956;9.076;2023-11-19T03:05:26;16.50;;;7.15;;
63714;SDS011;49858;48.956;9.076;2023-11-19T03:07:56;12.00;;;6.50;;
63714;SDS011;49858;48.956;9.076;2023-11-19T03:10:24;14.00;;;6.68;;
63714;SDS011;49858;48.956;9.076;2023-11-19T03:12:52;13.75;;;7.00;;
63714;SDS011;49858;48.956;9.076;2023-11-19T03:15:23;18.58;;;8.85;;
63714;SDS011;49858;48.956;9.076;2023-11-19T03:17:51;14.65;;;8.30;;
63714;SDS011;49858;48.956;9.076;2023-11-19T03:20:19;19.13;;;7.45;;
63714;SDS011;49858;48.956;9.076;2023-11-19T03:22:47;53.22;;;9.45;;
63714;SDS011;49858;48.956;9.076;2023-11-19T03:25:15;50.80;;;8.90;;
63714;SDS011;49858;48.956;9.076;2023-11-19T03:27:43;60.15;;;9.57;;
63714;SDS011;49858;48.956;9.076;2023-11-19T03:30:11;198.43;;;12.98;;
63714;SDS011;49858;48.956;9.076;2023-11-19T03:32:40;43.97;;;8.38;;
63714;SDS011;49858;48.956;9.076;2023-11-19T03:35:08;123.53;;;11.00;;
63714;SDS011;49858;48.956;9.076;2023-11-19T03:37:37;74.82;;;9.80;;
63714;SDS011;49858;48.956;9.076;2023-11-19T03:40:06;69.85;;;9.27;;
63714;SDS011;49858;48.956;9.076;2023-11-19T03:42:34;132.00;;;10.85;;
63714;SDS011;49858;48.956;9.076;2023-11-19T03:45:02;102.85;;;10.20;;
63714;SDS011;49858;48.956;9.076;2023-11-19T03:47:31;92.22;;;10.93;;
63714;SDS011;49858;48.956;9.076;2023-11-19T03:50:00;44.35;;;9.30;;
63714;SDS011;49858;48.956;9.076;2023-11-19T03:52:29;98.97;;;9.07;;
63714;SDS011;49858;48.956;9.076;2023-11-19T03:55:08;75.88;;;10.05;;
63714;SDS011;49858;48.956;9.076;2023-11-19T03:57:37;29.08;;;7.97;;
63714;SDS011;49858;48.956;9.076;2023-11-19T04:00:06;23.30;;;7.93;;
63714;SDS011;49858;48.956;9.076;2023-11-19T04:02:39;20.45;;;9.70;;
63714;SDS011;49858;48.956;9.076;2023-11-19T04:05:09;17.85;;;7.95;;
63714;SDS011;49858;48.956;9.076;2023-11-19T04:07:37;27.52;;;8.43;;
63714;SDS011;49858;48.956;9.076;2023-11-19T04:10:05;18.77;;;8.77;;
63714;SDS011;49858;48.956;9.076;2023-11-19T04:12:34;16.88;;;7.57;;
63714;SDS011;49858;48.956;9.076;2023-11-19T04:15:02;13.50;;;7.40;;
63714;SDS011;49858;48.956;9.076;2023-11-19T04:17:31;14.75;;;7.70;;
63714;SDS011;49858;48.956;9.076;2023-11-19T04:19:59;16.42;;;8.45;;
63714;SDS011;49858;48.956;9.076;2023-11-19T04:22:28;16.75;;;8.98;;
63714;SDS011;49858;48.956;9.076;2023-11-19T04:24:56;17.13;;;9.80;;
63714;SDS011;49858;48.956;9.076;2023-11-19T04:27:24;15.07;;;8.27;;
63714;SDS011;49858;48.956;9.076;2023-11-19T04:29:52;21.88;;;12.50;;
63714;SDS011;49858;48.956;9.076;2023-11-19T04:32:22;17.02;;;8.90;;
63714;SDS011;49858;48.956;9.076;2023-11-19T04:34:51;16.48;;;6.95;;
63714;SDS011;49858;48.956;9.076;2023-11-19T04:37:19;12.38;;;6.53;;
63714;SDS011;49858;48.956;9.076;2023-11-19T04:39:48;12.55;;;6.30;;
63714;SDS011;49858;48.956;9.076;2023-11-19T04:42:17;11.98;;;6.00;;
63714;SDS011;49858;48.956;9.076;2023-11-19T04:44:46;13.93;;;6.82;;
63714;SDS011;49858;48.956;9.076;2023-11-19T04:47:14;12.00;;;6.25;;
63714;SDS011;49858;48.956;9.076;2023-11-19T04:49:42;12.25;;;6.05;;
63714;SDS011;49858;48.956;9.076;2023-11-19T04:52:10;9.10;;;5.55;;
63714;SDS011;49858;48.956;9.076;2023-11-19T04:54:40;6.72;;;3.38;;
63714;SDS011;49858;48.956;9.076;2023-11-19T04:57:10;7.97;;;4.22;;
63714;SDS011;49858;48.956;9.076;2023-11-19T04:59:38;8.13;;;4.88;;
63714;SDS011;49858;48.956;9.076;2023-11-19T05:02:06;6.90;;;3.67;;
63714;SDS011;49858;48.956;9.076;2023-11-19T05:04:35;9.25;;;4.80;;
63714;SDS011;49858;48.956;9.076;2023-11-19T05:07:04;5.22;;;2.97;;
63714;SDS011;49858;48.956;9.076;2023-11-19T05:09:33;3.58;;;2.17;;
63714;SDS011;49858;48.956;9.076;2023-11-19T05:12:01;6.07;;;3.05;;
63714;SDS011;49858;48.956;9.076;2023-11-19T05:14:30;3.20;;;1.92;;
63714;SDS011;49858;48.956;9.076;2023-11-19T05:16:58;4.22;;;2.00;;
63714;SDS011;49858;48.956;9.076;2023-11-19T05:19:26;5.85;;;2.00;;
63714;SDS011;49858;48.956;9.076;2023-11-19T05:21:54;1.08;;;0.70;;
63714;SDS011;49858;48.956;9.076;2023-11-19T05:24:21;0.88;;;0.73;;
63714;SDS011;49858;48.956;9.076;2023-11-19T05:26:50;2.67;;;0.70;;
63714;SDS011;49858;48.956;9.076;2023-11-19T05:29:19;2.15;;;0.77;;
63714;SDS011;49858;48.956;9.076;2023-11-19T05:31:48;0.40;;;0.40;;
63714;SDS011;49858;48.956;9.076;2023-11-19T05:34:16;0.50;;;0.45;;
63714;SDS011;49858;48.956;9.076;2023-11-19T05:36:43;0.98;;;0.52;;
63714;SDS011;49858;48.956;9.076;2023-11-19T05:39:13;0.60;;;0.50;;
63714;SDS011;49858;48.956;9.076;2023-11-19T05:41:41;0.70;;;0.45;;
63714;SDS011;49858;48.956;9.076;2023-11-19T05:44:08;1.73;;;0.70;;
63714;SDS011;49858;48.956;9.076;2023-11-19T05:46:36;0.88;;;0.68;;
63714;SDS011;49858;48.956;9.076;2023-11-19T05:49:10;0.77;;;0.60;;
63714;SDS011;49858;48.956;9.076;2023-11-19T05:51:38;0.65;;;0.60;;
63714;SDS011;49858;48.956;9.076;2023-11-19T05:54:07;0.50;;;0.50;;
63714;SDS011;49858;48.956;9.076;2023-11-19T05:56:36;0.50;;;0.50;;
63714;SDS011;49858;48.956;9.076;2023-11-19T05:59:04;2.95;;;0.60;;
63714;SDS011;49858;48.956;9.076;2023-11-19T06:01:35;0.50;;;0.50;;
63714;SDS011;49858;48.956;9.076;2023-11-19T06:04:03;0.47;;;0.40;;
63714;SDS011;49858;48.956;9.076;2023-11-19T06:06:34;4.25;;;1.50;;
63714;SDS011;49858;48.956;9.076;2023-11-19T06:09:02;0.47;;;0.40;;
63714;SDS011;49858;48.956;9.076;2023-11-19T06:11:35;0.68;;;0.68;;
63714;SDS011;49858;48.956;9.076;2023-11-19T06:14:03;1.33;;;0.65;;
63714;SDS011;49858;48.956;9.076;2023-11-19T06:16:31;1.23;;;0.80;;
63714;SDS011;49858;48.956;9.076;2023-11-19T06:18:59;0.60;;;0.60;;
63714;SDS011;49858;48.956;9.076;2023-11-19T06:21:27;0.50;;;0.45;;
63714;SDS011;49858;48.956;9.076;2023-11-19T06:23:57;0.98;;;0.60;;
63714;SDS011;49858;48.956;9.076;2023-11-19T06:26:24;1.02;;;0.50;;
63714;SDS011;49858;48.956;9.076;2023-11-19T06:28:52;0.80;;;0.60;;
63714;SDS011;49858;48.956;9.076;2023-11-19T06:31:20;0.30;;;0.30;;
63714;SDS011;49858;48.956;9.076;2023-11-19T06:33:48;0.57;;;0.50;;
63714;SDS011;49858;48.956;9.076;2023-11-19T06:36:16;2.15;;;0.63;;
63714;SDS011;49858;48.956;9.076;2023-11-19T06:38:44;3.22;;;0.57;;
63714;SDS011;49858;48.956;9.076;2023-11-19T06:41:13;0.47;;;0.47;;
63714;SDS011;49858;48.956;9.076;2023-11-19T06:43:41;0.90;;;0.60;;
63714;SDS011;49858;48.956;9.076;2023-11-19T06:46:19;1.40;;;0.40;;
63714;SDS011;49858;48.956;9.076;2023-11-19T06:48:47;0.40;;;0.40;;
63714;SDS011;49858;48.956;9.076;2023-11-19T06:51:14;0.50;;;0.50;;
63714;SDS011;49858;48.956;9.076;2023-11-19T06:53:42;0.90;;;0.55;;
63714;SDS011;49858;48.956;9.076;2023-11-19T06:56:20;0.30;;;0.30;;
63714;SDS011;49858;48.956;9.076;2023-11-19T06:58:48;0.43;;;0.40;;
63714;SDS011;49858;48.956;9.076;2023-11-19T07:01:16;0.30;;;0.30;;
63714;SDS011;49858;48.956;9.076;2023-11-19T07:03:45;0.32;;;0.30;;
63714;SDS011;49858;48.956;9.076;2023-11-19T07:06:13;0.47;;;0.47;;
63714;SDS011;49858;48.956;9.076;2023-11-19T07:08:41;0.55;;;0.43;;
63714;SDS011;49858;48.956;9.076;2023-11-19T07:11:11;1.30;;;0.85;;
63714;SDS011;49858;48.956;9.076;2023-11-19T07:13:42;2.63;;;2.00;;
63714;SDS011;49858;48.956;9.076;2023-11-19T07:16:10;1.48;;;1.02;;
63714;SDS011;49858;48.956;9.076;2023-11-19T07:18:37;0.60;;;0.50;;
63714;SDS011;49858;48.956;9.076;2023-11-19T07:21:06;0.95;;;0.65;;
63714;SDS011;49858;48.956;9.076;2023-11-19T07:23:36;1.50;;;0.60;;
63714;SDS011;49858;48.956;9.076;2023-11-19T07:26:05;0.40;;;0.40;;
63714;SDS011;49858;48.956;9.076;2023-11-19T07:28:35;0.32;;;0.30;;
63714;SDS011;49858;48.956;9.076;2023-11-19T07:31:05;2.78;;;0.68;;
63714;SDS011;49858;48.956;9.076;2023-11-19T07:33:34;2.75;;;1.35;;
63714;SDS011;49858;48.956;9.076;2023-11-19T07:36:02;3.78;;;1.40;;
63714;SDS011;49858;48.956;9.076;2023-11-19T07:38:30;4.35;;;1.70;;
63714;SDS011;49858;48.956;9.076;2023-11-19T07:40:58;2.42;;;0.90;;
63714;SDS011;49858;48.956;9.076;2023-11-19T07:43:26;1.58;;;0.60;;
63714;SDS011;49858;48.956;9.076;2023-11-19T07:45:54;0.50;;;0.40;;
63714;SDS011;49858;48.956;9.076;2023-11-19T07:48:23;0.40;;;0.40;;
63714;SDS011;49858;48.956;9.076;2023-11-19T07:50:51;2.92;;;0.88;;
63714;SDS011;49858;48.956;9.076;2023-11-19T07:53:20;0.95;;;0.68;;
63714;SDS011;49858;48.956;9.076;2023-11-19T07:55:47;1.33;;;0.80;;
63714;SDS011;49858;48.956;9.076;2023-11-19T07:58:15;0.80;;;0.70;;
63714;SDS011;49858;48.956;9.076;2023-11-19T08:00:43;1.48;;;0.90;;
63714;SDS011;49858;48.956;9.076;2023-11-19T08:03:11;1.73;;;0.80;;
63714;SDS011;49858;48.956;9.076;2023-11-19T08:05:41;3.20;;;2.90;;
63714;SDS011;49858;48.956;9.076;2023-11-19T08:08:08;2.90;;;2.40;;
63714;SDS011;49858;48.956;9.076;2023-11-19T08:10:36;1.65;;;1.17;;
63714;SDS011;49858;48.956;9.076;2023-11-19T08:13:04;1.60;;;1.05;;
63714;SDS011;49858;48.956;9.076;2023-11-19T08:15:32;1.52;;;1.08;;
63714;SDS011;49858;48.956;9.076;2023-11-19T08:18:00;2.13;;;1.35;;
63714;SDS011;49858;48.956;9.076;2023-11-19T08:20:28;1.15;;;0.70;;
63714;SDS011;49858;48.956;9.076;2023-11-19T08:22:57;1.27;;;0.80;;
63714;SDS011;49858;48.956;9.076;2023-11-19T08:25:27;4.30;;;1.00;;
63714;SDS011;49858;48.956;9.076;2023-11-19T08:27:55;2.05;;;1.05;;
63714;SDS011;49858;48.956;9.076;2023-11-19T08:30:23;2.30;;;0.80;;
63714;SDS011;49858;48.956;9.076;2023-11-19T08:32:51;1.80;;;0.70;;
63714;SDS011;49858;48.956;9.076;2023-11-19T08:35:19;2.20;;;0.75;;
63714;SDS011;49858;48.956;9.076;2023-11-19T08:37:47;2.58;;;0.73;;
63714;SDS011;49858;48.956;9.076;2023-11-19T08:40:16;1.85;;;0.77;;
63714;SDS011;49858;48.956;9.076;2023-11-19T08:42:44;3.40;;;1.00;;
63714;SDS011;49858;48.956;9.076;2023-11-19T08:45:12;1.50;;;0.80;;
63714;SDS011;49858;48.956;9.076;2023-11-19T08:47:42;3.25;;;1.30;;
63714;SDS011;49858;48.956;9.076;2023-11-19T08:50:11;3.20;;;1.17;;
63714;SDS011;49858;48.956;9.076;2023-11-19T08:52:39;1.38;;;0.50;;
63714;SDS011;49858;48.956;9.076;2023-11-19T08:55:07;1.27;;;0.75;;
63714;SDS011;49858;48.956;9.076;2023-11-19T08:57:37;2.85;;;1.00;;
63714;SDS011;49858;48.956;9.076;2023-11-19T09:00:07;0.90;;;0.50;;
63714;SDS011;49858;48.956;9.076;2023-11-19T09:02:35;1.13;;;0.80;;
63714;SDS011;49858;48.956;9.076;2023-11-19T09:05:05;1.15;;;0.82;;
63714;SDS011;49858;48.956;9.076;2023-11-19T09:07:34;1.40;;;0.80;;
63714;SDS011;49858;48.956;9.076;2023-11-19T09:10:02;3.45;;;1.50;;
63714;SDS011;49858;48.956;9.076;2023-11-19T09:12:31;1.48;;;0.70;;
63714;SDS011;49858;48.956;9.076;2023-11-19T09:15:01;1.17;;;0.75;;
63714;SDS011;49858;48.956;9.076;2023-11-19T09:17:29;1.50;;;0.90;;
63714;SDS011;49858;48.956;9.076;2023-11-19T09:19:57;1.25;;;0.80;;
63714;SDS011;49858;48.956;9.076;2023-11-19T09:22:25;0.95;;;0.80;;
63714;SDS011;49858;48.956;9.076;2023-11-19T09:24:52;1.35;;;0.80;;
63714;SDS011;49858;48.956;9.076;2023-11-19T09:27:21;2.70;;;0.90;;
63714;SDS011;49858;48.956;9.076;2023-11-19T09:29:49;1.45;;;0.75;;
63714;SDS011;49858;48.956;9.076;2023-11-19T09:32:24;1.98;;;1.20;;
63714;SDS011;49858;48.956;9.076;2023-11-19T09:34:54;2.35;;;0.70;;
63714;SDS011;49858;48.956;9.076;2023-11-19T09:37:22;1.65;;;0.60;;
63714;SDS011;49858;48.956;9.076;2023-11-19T09:39:49;2.35;;;1.05;;
63714;SDS011;49858;48.956;9.076;2023-11-19T09:42:17;1.88;;;0.82;;
63714;SDS011;49858;48.956;9.076;2023-11-19T09:44:45;0.65;;;0.60;;
63714;SDS011;49858;48.956;9.076;2023-11-19T09:47:15;0.75;;;0.55;;
63714;SDS011;49858;48.956;9.076;2023-11-19T09:49:47;0.70;;;0.50;;
63714;SDS011;49858;48.956;9.076;2023-11-19T09:52:17;1.02;;;0.70;;
63714;SDS011;49858;48.956;9.076;2023-11-19T09:54:45;0.63;;;0.43;;
63714;SDS011;49858;48.956;9.076;2023-11-19T09:57:13;0.98;;;0.70;;
63714;SDS011;49858;48.956;9.076;2023-11-19T09:59:44;1.13;;;0.70;;
63714;SDS011;49858;48.956;9.076;2023-11-19T10:02:14;0.73;;;0.70;;
63714;SDS011;49858;48.956;9.076;2023-11-19T10:04:43;2.00;;;0.80;;
63714;SDS011;49858;48.956;9.076;2023-11-19T10:07:15;0.60;;;0.45;;
63714;SDS011;49858;48.956;9.076;2023-11-19T10:09:43;2.83;;;0.82;;
63714;SDS011;49858;48.956;9.076;2023-11-19T10:12:13;0.85;;;0.77;;
63714;SDS011;49858;48.956;9.076;2023-11-19T10:14:43;2.67;;;1.10;;
63714;SDS011;49858;48.956;9.076;2023-11-19T10:17:13;1.15;;;0.70;;
63714;SDS011;49858;48.956;9.076;2023-11-19T10:19:41;0.82;;;0.50;;
63714;SDS011;49858;48.956;9.076;2023-11-19T10:22:09;3.03;;;0.90;;
63714;SDS011;49858;48.956;9.076;2023-11-19T10:24:39;1.20;;;0.60;;
63714;SDS011;49858;48.956;9.076;2023-11-19T10:27:14;1.05;;;0.73;;
63714;SDS011;49858;48.956;9.076;2023-11-19T10:29:43;1.02;;;0.65;;
63714;SDS011;49858;48.956;9.076;2023-11-19T10:32:13;5.00;;;1.13;;
63714;SDS011;49858;48.956;9.076;2023-11-19T10:35:03;2.58;;;0.90;;
63714;SDS011;49858;48.956;9.076;2023-11-19T10:37:33;2.45;;;0.70;;
63714;SDS011;49858;48.956;9.076;2023-11-19T10:40:06;1.80;;;1.02;;
63714;SDS011;49858;48.956;9.076;2023-11-19T10:42:36;1.33;;;0.77;;
63714;SDS011;49858;48.956;9.076;2023-11-19T10:45:05;2.45;;;0.73;;
63714;SDS011;49858;48.956;9.076;2023-11-19T10:47:49;0.68;;;0.50;;
63714;SDS011;49858;48.956;9.076;2023-11-19T10:50:18;0.80;;;0.60;;
63714;SDS011;49858;48.956;9.076;2023-11-19T10:52:47;1.95;;;0.60;;
63714;SDS011;49858;48.956;9.076;2023-11-19T10:55:18;1.13;;;0.70;;
63714;SDS011;49858;48.956;9.076;2023-11-19T10:57:54;0.65;;;0.52;;
63714;SDS011;49858;48.956;9.076;2023-11-19T11:00:28;2.97;;;0.75;;
63714;SDS011;49858;48.956;9.076;2023-11-19T11:03:00;2.45;;;0.82;;
63714;SDS011;49858;48.956;9.076;2023-11-19T11:05:29;2.28;;;1.10;;
63714;SDS011;49858;48.956;9.076;2023-11-19T11:08:00;2.20;;;0.77;;
63714;SDS011;49858;48.956;9.076;2023-11-19T11:10:31;2.50;;;0.80;;
63714;SDS011;49858;48.956;9.076;2023-11-19T11:13:23;2.60;;;0.85;;
63714;SDS011;49858;48.956;9.076;2023-11-19T11:15:51;1.17;;;1.00;;
63714;SDS011;49858;48.956;9.076;2023-11-19T11:18:21;1.15;;;0.60;;
63714;SDS011;49858;48.956;9.076;2023-11-19T11:20:49;2.65;;;1.10;;
63714;SDS011;49858;48.956;9.076;2023-11-19T11:23:31;3.58;;;0.88;;
63714;SDS011;49858;48.956;9.076;2023-11-19T11:29:24;1.65;;;0.80;;
63714;SDS011;49858;48.956;9.076;2023-11-19T11:32:00;0.93;;;0.77;;
63714;SDS011;49858;48.956;9.076;2023-11-19T11:34:41;1.50;;;0.90;;
63714;SDS011;49858;48.956;9.076;2023-11-19T11:37:21;2.40;;;0.98;;
63714;SDS011;49858;48.956;9.076;2023-11-19T11:39:53;2.65;;;1.20;;
63714;SDS011;49858;48.956;9.076;2023-11-19T11:42:32;1.48;;;0.93;;
63714;SDS011;49858;48.956;9.076;2023-11-19T11:45:05;1.98;;;0.80;;
63714;SDS011;49858;48.956;9.076;2023-11-19T11:53:25;1.58;;;0.80;;
63714;SDS011;49858;48.956;9.076;2023-11-19T11:55:54;2.83;;;1.25;;
63714;SDS011;49858;48.956;9.076;2023-11-19T11:58:26;1.42;;;0.93;;
63714;SDS011;49858;48.956;9.076;2023-11-19T12:00:58;1.77;;;0.90;;
63714;SDS011;49858;48.956;9.076;2023-11-19T12:03:28;2.20;;;0.98;;
63714;SDS011;49858;48.956;9.076;2023-11-19T12:05:57;2.58;;;0.73;;
63714;SDS011;49858;48.956;9.076;2023-11-19T12:08:26;1.52;;;0.65;;
63714;SDS011;49858;48.956;9.076;2023-11-19T12:10:56;1.92;;;0.77;;
63714;SDS011;49858;48.956;9.076;2023-11-19T12:13:44;3.15;;;1.10;;
63714;SDS011;49858;48.956;9.076;2023-11-19T12:16:16;1.60;;;0.68;;
63714;SDS011;49858;48.956;9.076;2023-11-19T12:18:44;1.50;;;0.68;;
63714;SDS011;49858;48.956;9.076;2023-11-19T12:21:26;4.47;;;1.50;;
63714;SDS011;49858;48.956;9.076;2023-11-19T12:23:55;3.22;;;1.90;;
63714;SDS011;49858;48.956;9.076;2023-11-19T12:26:35;3.47;;;1.48;;
63714;SDS011;49858;48.956;9.076;2023-11-19T12:29:05;3.70;;;1.80;;
63714;SDS011;49858;48.956;9.076;2023-11-19T12:31:36;4.85;;;1.80;;
63714;SDS011;49858;48.956;9.076;2023-11-19T12:34:06;4.55;;;1.75;;
63714;SDS011;49858;48.956;9.076;2023-11-19T12:36:41;1.63;;;0.90;;
63714;SDS011;49858;48.956;9.076;2023-11-19T12:39:09;3.25;;;1.20;;
63714;SDS011;49858;48.956;9.076;2023-11-19T12:41:50;3.72;;;1.27;;
63714;SDS011;49858;48.956;9.076;2023-11-19T12:44:19;2.92;;;0.95;;
63714;SDS011;49858;48.956;9.076;2023-11-19T12:47:00;2.15;;;0.73;;
63714;SDS011;49858;48.956;9.076;2023-11-19T12:49:28;2.60;;;0.98;;
63714;SDS011;49858;48.956;9.076;2023-11-19T12:51:56;1.65;;;0.80;;
63714;SDS011;49858;48.956;9.076;2023-11-19T12:54:34;1.02;;;0.68;;
63714;SDS011;49858;48.956;9.076;2023-11-19T12:57:03;1.45;;;0.80;;
63714;SDS011;49858;48.956;9.076;2023-11-19T12:59:32;2.10;;;0.93;;
63714;SDS011;49858;48.956;9.076;2023-11-19T13:02:01;2.60;;;0.93;;
63714;SDS011;49858;48.956;9.076;2023-11-19T13:04:32;1.67;;;1.00;;
63714;SDS011;49858;48.956;9.076;2023-11-19T13:07:00;2.03;;;0.80;;
63714;SDS011;49858;48.956;9.076;2023-11-19T13:09:31;2.42;;;1.05;;
63714;SDS011;49858;48.956;9.076;2023-11-19T13:11:59;1.25;;;0.82;;
63714;SDS011;49858;48.956;9.076;2023-11-19T13:14:40;1.92;;;0.70;;
63714;SDS011;49858;48.956;9.076;2023-11-19T13:17:13;3.17;;;0.82;;
63714;SDS011;49858;48.956;9.076;2023-11-19T13:19:42;1.65;;;0.90;;
63714;SDS011;49858;48.956;9.076;2023-11-19T13:22:11;1.08;;;0.70;;
63714;SDS011;49858;48.956;9.076;2023-11-19T13:24:39;3.40;;;1.10;;
63714;SDS011;49858;48.956;9.076;2023-11-19T13:27:09;2.63;;;1.02;;
63714;SDS011;49858;48.956;9.076;2023-11-19T13:29:37;1.90;;;0.88;;
63714;SDS011;49858;48.956;9.076;2023-11-19T13:32:04;1.30;;;0.98;;
63714;SDS011;49858;48.956;9.076;2023-11-19T13:34:34;3.00;;;0.90;;
63714;SDS011;49858;48.956;9.076;2023-11-19T13:37:02;1.95;;;0.90;;
63714;SDS011;49858;48.956;9.076;2023-11-19T13:39:30;3.05;;;1.20;;
63714;SDS011;49858;48.956;9.076;2023-11-19T13:41:58;1.15;;;0.80;;
63714;SDS011;49858;48.956;9.076;2023-11-19T13:44:30;2.47;;;0.98;;
63714;SDS011;49858;48.956;9.076;2023-11-19T13:46:58;2.30;;;0.70;;
63714;SDS011;49858;48.956;9.076;2023-11-19T13:49:26;3.97;;;1.13;;
63714;SDS011;49858;48.956;9.076;2023-11-19T13:51:56;1.45;;;0.70;;
63714;SDS011;49858;48.956;9.076;2023-11-19T13:54:23;1.92;;;1.00;;
63714;SDS011;49858;48.956;9.076;2023-11-19T13:56:54;2.17;;;1.02;;
63714;SDS011;49858;48.956;9.076;2023-11-19T13:59:24;2.55;;;0.90;;
63714;SDS011;49858;48.956;9.076;2023-11-19T14:01:52;2.15;;;0.95;;
63714;SDS011;49858;48.956;9.076;2023-11-19T14:04:20;1.48;;;0.70;;
63714;SDS011;49858;48.956;9.076;2023-11-19T14:06:48;2.75;;;1.10;;
63714;SDS011;49858;48.956;9.076;2023-11-19T14:09:17;2.25;;;0.70;;
63714;SDS011;49858;48.956;9.076;2023-11-19T14:11:45;1.55;;;1.00;;
63714;SDS011;49858;48.956;9.076;2023-11-19T14:14:13;2.92;;;0.82;;
63714;SDS011;49858;48.956;9.076;2023-11-19T14:16:42;3.25;;;0.80;;
63714;SDS011;49858;48.956;9.076;2023-11-19T14:19:11;1.83;;;1.00;;
63714;SDS011;49858;48.956;9.076;2023-11-19T14:21:40;3.13;;;1.00;;
63714;SDS011;49858;48.956;9.076;2023-11-19T14:24:08;2.35;;;0.80;;
63714;SDS011;49858;48.956;9.076;2023-11-19T14:26:37;1.52;;;0.80;;
63714;SDS011;49858;48.956;9.076;2023-11-19T14:29:05;1.70;;;0.80;;
63714;SDS011;49858;48.956;9.076;2023-11-19T14:31:34;3.10;;;0.80;;
63714;SDS011;49858;48.956;9.076;2023-11-19T14:34:02;1.58;;;0.93;;
63714;SDS011;49858;48.956;9.076;2023-11-19T14:36:30;1.58;;;0.77;;
63714;SDS011;49858;48.956;9.076;2023-11-19T14:38:57;1.17;;;0.77;;
63714;SDS011;49858;48.956;9.076;2023-11-19T14:41:26;2.05;;;1.00;;
63714;SDS011;49858;48.956;9.076;2023-11-19T14:43:55;1.77;;;0.80;;
63714;SDS011;49858;48.956;9.076;2023-11-19T14:46:23;1.63;;;0.88;;
63714;SDS011;49858;48.956;9.076;2023-11-19T14:48:50;1.83;;;0.88;;
63714;SDS011;49858;48.956;9.076;2023-11-19T14:51:18;1.83;;;0.75;;
63714;SDS011;49858;48.956;9.076;2023-11-19T14:53:46;1.92;;;0.98;;
63714;SDS011;49858;48.956;9.076;2023-11-19T14:56:14;2.35;;;1.00;;
63714;SDS011;49858;48.956;9.076;2023-11-19T14:58:43;2.22;;;0.90;;
63714;SDS011;49858;48.956;9.076;2023-11-19T15:01:12;1.75;;;0.90;;
63714;SDS011;49858;48.956;9.076;2023-11-19T15:03:41;3.38;;;0.88;;
63714;SDS011;49858;48.956;9.076;2023-11-19T15:06:12;1.13;;;0.75;;
63714;SDS011;49858;48.956;9.076;2023-11-19T15:08:40;2.20;;;0.90;;